sensor_id;sensor_type;location;lat;lon;timestamp;P1;durP1;ratioP1;P2;durP2;ratioP2
69256;SDS011;56376;53.356;-1.748;2023-05-10T00:01:04;10.35;;;3.13;;
69256;SDS011;56376;53.356;-1.748;2023-05-10T00:03:30;5.60;;;2.35;;
69256;SDS011;56376;53.356;-1.748;2023-05-10T00:05:55;8.18;;;2.97;;
69256;SDS011;56376;53.356;-1.748;2023-05-10T00:08:21;7.40;;;3.20;;
69256;SDS011;56376;53.356;-1.748;2023-05-10T00:10:46;7.68;;;3.42;;
69256;SDS011;56376;53.356;-1.748;2023-05-10T00:13:12;11.23;;;3.67;;
69256;SDS011;56376;53.356;-1.748;2023-05-10T00:15:38;9.77;;;3.80;;
69256;SDS011;56376;53.356;-1.748;2023-05-10T00:18:03;8.27;;;2.88;;
69256;SDS011;56376;53.356;-1.748;2023-05-10T00:20:28;6.93;;;2.60;;
69256;SDS011;56376;53.356;-1.748;2023-05-10T00:22:54;5.60;;;2.58;;
69256;SDS011;56376;53.356;-1.748;2023-05-10T00:25:19;7.38;;;2.92;;
69256;SDS011;56376;53.356;-1.748;2023-05-10T00:27:46;10.27;;;3.92;;
69256;SDS011;56376;53.356;-1.748;2023-05-10T00:30:12;8.30;;;3.80;;
69256;SDS011;56376;53.356;-1.748;2023-05-10T00:32:37;9.57;;;4.32;;
69256;SDS011;56376;53.356;-1.748;2023-05-10T00:35:02;7.55;;;3.10;;
69256;SDS011;56376;53.356;-1.748;2023-05-10T00:37:28;8.23;;;3.40;;
69256;SDS011;56376;53.356;-1.748;2023-05-10T00:39:53;9.23;;;3.47;;
69256;SDS011;56376;53.356;-1.748;2023-05-10T00:42:19;12.10;;;3.45;;
69256;SDS011;56376;53.356;-1.748;2023-05-10T00:44:44;10.02;;;4.13;;
69256;SDS011;56376;53.356;-1.748;2023-05-10T00:47:09;6.28;;;2.80;;
69256;SDS011;56376;53.356;-1.748;2023-05-10T00:49:35;6.32;;;2.88;;
69256;SDS011;56376;53.356;-1.748;2023-05-10T00:52:01;9.07;;;2.90;;
69256;SDS011;56376;53.356;-1.748;2023-05-10T00:54:28;4.88;;;2.85;;
69256;SDS011;56376;53.356;-1.748;2023-05-10T00:56:53;7.18;;;2.80;;
69256;SDS011;56376;53.356;-1.748;2023-05-10T00:59:18;6.47;;;2.53;;
69256;SDS011;56376;53.356;-1.748;2023-05-10T01:01:45;6.72;;;2.80;;
69256;SDS011;56376;53.356;-1.748;2023-05-10T01:04:14;5.72;;;2.25;;
69256;SDS011;56376;53.356;-1.748;2023-05-10T01:06:43;3.22;;;1.83;;
69256;SDS011;56376;53.356;-1.748;2023-05-10T01:09:08;4.25;;;2.20;;
69256;SDS011;56376;53.356;-1.748;2023-05-10T01:11:35;5.63;;;2.45;;
69256;SDS011;56376;53.356;-1.748;2023-05-10T01:14:02;5.28;;;2.40;;
69256;SDS011;56376;53.356;-1.748;2023-05-10T01:16:29;4.85;;;2.53;;
69256;SDS011;56376;53.356;-1.748;2023-05-10T01:18:58;7.28;;;2.60;;
69256;SDS011;56376;53.356;-1.748;2023-05-10T01:32:43;4.18;;;2.28;;
69256;SDS011;56376;53.356;-1.748;2023-05-10T01:43:26;4.68;;;2.25;;
69256;SDS011;56376;53.356;-1.748;2023-05-10T01:46:03;4.82;;;2.33;;
69256;SDS011;56376;53.356;-1.748;2023-05-10T01:48:40;2.97;;;1.88;;
69256;SDS011;56376;53.356;-1.748;2023-05-10T01:51:12;3.97;;;2.05;;
69256;SDS011;56376;53.356;-1.748;2023-05-10T01:53:41;4.80;;;2.03;;
69256;SDS011;56376;53.356;-1.748;2023-05-10T01:56:09;2.88;;;1.92;;
69256;SDS011;56376;53.356;-1.748;2023-05-10T01:58:36;3.28;;;2.20;;
69256;SDS011;56376;53.356;-1.748;2023-05-10T02:01:08;5.78;;;2.20;;
69256;SDS011;56376;53.356;-1.748;2023-05-10T02:03:35;4.63;;;2.45;;
69256;SDS011;56376;53.356;-1.748;2023-05-10T02:06:01;7.28;;;2.47;;
69256;SDS011;56376;53.356;-1.748;2023-05-10T02:08:28;4.80;;;2.50;;
69256;SDS011;56376;53.356;-1.748;2023-05-10T02:10:55;3.33;;;1.80;;
69256;SDS011;56376;53.356;-1.748;2023-05-10T02:13:22;4.07;;;2.10;;
69256;SDS011;56376;53.356;-1.748;2023-05-10T02:15:49;3.60;;;2.05;;
69256;SDS011;56376;53.356;-1.748;2023-05-10T02:18:16;4.38;;;2.25;;
69256;SDS011;56376;53.356;-1.748;2023-05-10T02:20:43;3.75;;;2.30;;
69256;SDS011;56376;53.356;-1.748;2023-05-10T02:23:11;3.97;;;2.15;;
69256;SDS011;56376;53.356;-1.748;2023-05-10T02:25:38;5.75;;;2.20;;
69256;SDS011;56376;53.356;-1.748;2023-05-10T02:28:04;4.47;;;2.25;;
69256;SDS011;56376;53.356;-1.748;2023-05-10T02:30:32;4.60;;;2.47;;
69256;SDS011;56376;53.356;-1.748;2023-05-10T02:32:59;6.55;;;2.65;;
69256;SDS011;56376;53.356;-1.748;2023-05-10T02:35:27;6.20;;;2.90;;
69256;SDS011;56376;53.356;-1.748;2023-05-10T02:37:53;7.05;;;2.75;;
69256;SDS011;56376;53.356;-1.748;2023-05-10T02:40:19;4.40;;;2.67;;
69256;SDS011;56376;53.356;-1.748;2023-05-10T02:42:47;4.75;;;2.42;;
69256;SDS011;56376;53.356;-1.748;2023-05-10T02:45:17;3.38;;;2.40;;
69256;SDS011;56376;53.356;-1.748;2023-05-10T02:47:46;4.93;;;2.40;;
69256;SDS011;56376;53.356;-1.748;2023-05-10T02:50:11;3.72;;;2.35;;
69256;SDS011;56376;53.356;-1.748;2023-05-10T02:52:42;4.07;;;2.20;;
69256;SDS011;56376;53.356;-1.748;2023-05-10T02:55:15;4.47;;;2.20;;
69256;SDS011;56376;53.356;-1.748;2023-05-10T02:57:46;4.40;;;2.20;;
69256;SDS011;56376;53.356;-1.748;2023-05-10T03:00:16;5.38;;;2.47;;
69256;SDS011;56376;53.356;-1.748;2023-05-10T03:02:41;4.10;;;2.28;;
69256;SDS011;56376;53.356;-1.748;2023-05-10T03:05:07;4.97;;;2.80;;
69256;SDS011;56376;53.356;-1.748;2023-05-10T03:07:33;4.28;;;2.75;;
69256;SDS011;56376;53.356;-1.748;2023-05-10T03:09:58;5.55;;;3.03;;
69256;SDS011;56376;53.356;-1.748;2023-05-10T03:17:39;8.98;;;4.30;;
69256;SDS011;56376;53.356;-1.748;2023-05-10T03:20:12;10.48;;;4.25;;
69256;SDS011;56376;53.356;-1.748;2023-05-10T03:22:55;10.50;;;5.40;;
69256;SDS011;56376;53.356;-1.748;2023-05-10T03:25:32;10.23;;;6.43;;
69256;SDS011;56376;53.356;-1.748;2023-05-10T03:27:59;13.32;;;5.28;;
69256;SDS011;56376;53.356;-1.748;2023-05-10T03:30:26;13.00;;;6.68;;
69256;SDS011;56376;53.356;-1.748;2023-05-10T03:32:53;12.77;;;6.15;;
69256;SDS011;56376;53.356;-1.748;2023-05-10T03:35:19;9.48;;;5.43;;
69256;SDS011;56376;53.356;-1.748;2023-05-10T03:37:44;9.85;;;5.20;;
69256;SDS011;56376;53.356;-1.748;2023-05-10T03:40:10;9.80;;;6.18;;
69256;SDS011;56376;53.356;-1.748;2023-05-10T03:42:35;11.98;;;5.38;;
69256;SDS011;56376;53.356;-1.748;2023-05-10T03:45:01;8.80;;;5.63;;
69256;SDS011;56376;53.356;-1.748;2023-05-10T03:47:26;6.70;;;4.40;;
69256;SDS011;56376;53.356;-1.748;2023-05-10T03:49:52;7.00;;;4.50;;
69256;SDS011;56376;53.356;-1.748;2023-05-10T03:52:17;7.68;;;5.32;;
69256;SDS011;56376;53.356;-1.748;2023-05-10T03:54:43;6.95;;;5.03;;
69256;SDS011;56376;53.356;-1.748;2023-05-10T03:57:08;10.25;;;5.75;;
69256;SDS011;56376;53.356;-1.748;2023-05-10T03:59:34;7.68;;;4.45;;
69256;SDS011;56376;53.356;-1.748;2023-05-10T04:02:00;5.72;;;4.50;;
69256;SDS011;56376;53.356;-1.748;2023-05-10T04:04:25;6.60;;;5.20;;
69256;SDS011;56376;53.356;-1.748;2023-05-10T04:06:50;6.82;;;4.43;;
69256;SDS011;56376;53.356;-1.748;2023-05-10T04:09:16;6.75;;;5.15;;
69256;SDS011;56376;53.356;-1.748;2023-05-10T04:11:42;6.78;;;4.60;;
69256;SDS011;56376;53.356;-1.748;2023-05-10T04:14:07;8.07;;;4.90;;
69256;SDS011;56376;53.356;-1.748;2023-05-10T04:16:33;7.93;;;5.15;;
69256;SDS011;56376;53.356;-1.748;2023-05-10T04:18:58;9.07;;;5.20;;
69256;SDS011;56376;53.356;-1.748;2023-05-10T04:21:24;9.57;;;5.05;;
69256;SDS011;56376;53.356;-1.748;2023-05-10T04:23:50;7.47;;;4.80;;
69256;SDS011;56376;53.356;-1.748;2023-05-10T04:26:15;5.63;;;4.05;;
69256;SDS011;56376;53.356;-1.748;2023-05-10T04:28:41;7.75;;;4.53;;
69256;SDS011;56376;53.356;-1.748;2023-05-10T04:31:07;8.85;;;4.95;;
69256;SDS011;56376;53.356;-1.748;2023-05-10T04:33:34;7.38;;;4.93;;
69256;SDS011;56376;53.356;-1.748;2023-05-10T04:36:00;6.95;;;4.80;;
69256;SDS011;56376;53.356;-1.748;2023-05-10T04:38:26;5.85;;;4.38;;
69256;SDS011;56376;53.356;-1.748;2023-05-10T04:40:52;7.53;;;4.43;;
69256;SDS011;56376;53.356;-1.748;2023-05-10T04:43:17;5.97;;;4.20;;
69256;SDS011;56376;53.356;-1.748;2023-05-10T04:45:43;7.28;;;4.65;;
69256;SDS011;56376;53.356;-1.748;2023-05-10T04:48:08;5.88;;;4.40;;
69256;SDS011;56376;53.356;-1.748;2023-05-10T04:50:34;7.32;;;4.75;;
69256;SDS011;56376;53.356;-1.748;2023-05-10T04:52:59;8.02;;;5.38;;
69256;SDS011;56376;53.356;-1.748;2023-05-10T04:55:25;6.32;;;4.60;;
69256;SDS011;56376;53.356;-1.748;2023-05-10T04:57:51;7.10;;;5.05;;
69256;SDS011;56376;53.356;-1.748;2023-05-10T05:00:17;7.65;;;4.25;;
69256;SDS011;56376;53.356;-1.748;2023-05-10T05:02:43;7.03;;;4.80;;
69256;SDS011;56376;53.356;-1.748;2023-05-10T05:05:10;5.90;;;3.70;;
69256;SDS011;56376;53.356;-1.748;2023-05-10T05:07:35;7.70;;;5.07;;
69256;SDS011;56376;53.356;-1.748;2023-05-10T05:10:02;7.25;;;4.85;;
69256;SDS011;56376;53.356;-1.748;2023-05-10T05:12:28;6.57;;;4.57;;
69256;SDS011;56376;53.356;-1.748;2023-05-10T05:14:53;5.50;;;4.65;;
69256;SDS011;56376;53.356;-1.748;2023-05-10T05:17:18;7.15;;;4.88;;
69256;SDS011;56376;53.356;-1.748;2023-05-10T05:19:44;6.65;;;5.03;;
69256;SDS011;56376;53.356;-1.748;2023-05-10T05:22:09;9.20;;;5.88;;
69256;SDS011;56376;53.356;-1.748;2023-05-10T05:24:35;5.32;;;4.35;;
69256;SDS011;56376;53.356;-1.748;2023-05-10T05:27:04;7.22;;;4.88;;
69256;SDS011;56376;53.356;-1.748;2023-05-10T05:29:29;9.48;;;5.10;;
69256;SDS011;56376;53.356;-1.748;2023-05-10T05:31:55;7.20;;;4.97;;
69256;SDS011;56376;53.356;-1.748;2023-05-10T05:34:20;7.80;;;4.78;;
69256;SDS011;56376;53.356;-1.748;2023-05-10T05:36:46;7.80;;;4.28;;
69256;SDS011;56376;53.356;-1.748;2023-05-10T05:39:12;7.10;;;5.13;;
69256;SDS011;56376;53.356;-1.748;2023-05-10T05:41:37;6.15;;;4.78;;
69256;SDS011;56376;53.356;-1.748;2023-05-10T05:44:03;7.07;;;4.85;;
69256;SDS011;56376;53.356;-1.748;2023-05-10T05:46:28;7.35;;;5.22;;
69256;SDS011;56376;53.356;-1.748;2023-05-10T05:48:53;9.25;;;5.22;;
69256;SDS011;56376;53.356;-1.748;2023-05-10T05:51:19;7.40;;;5.20;;
69256;SDS011;56376;53.356;-1.748;2023-05-10T05:53:44;7.03;;;4.88;;
69256;SDS011;56376;53.356;-1.748;2023-05-10T05:56:10;10.88;;;5.43;;
69256;SDS011;56376;53.356;-1.748;2023-05-10T05:58:35;8.32;;;5.00;;
69256;SDS011;56376;53.356;-1.748;2023-05-10T06:01:00;8.88;;;5.57;;
69256;SDS011;56376;53.356;-1.748;2023-05-10T06:03:26;8.70;;;5.70;;
69256;SDS011;56376;53.356;-1.748;2023-05-10T06:05:51;10.32;;;6.13;;
69256;SDS011;56376;53.356;-1.748;2023-05-10T06:08:17;8.13;;;5.85;;
69256;SDS011;56376;53.356;-1.748;2023-05-10T06:10:42;10.80;;;6.15;;
69256;SDS011;56376;53.356;-1.748;2023-05-10T06:13:07;9.02;;;5.57;;
69256;SDS011;56376;53.356;-1.748;2023-05-10T06:15:33;6.70;;;4.90;;
69256;SDS011;56376;53.356;-1.748;2023-05-10T06:17:58;8.88;;;5.10;;
69256;SDS011;56376;53.356;-1.748;2023-05-10T06:20:24;7.15;;;4.95;;
69256;SDS011;56376;53.356;-1.748;2023-05-10T06:22:49;6.70;;;4.60;;
69256;SDS011;56376;53.356;-1.748;2023-05-10T06:25:15;5.93;;;4.53;;
69256;SDS011;56376;53.356;-1.748;2023-05-10T06:27:42;6.43;;;4.13;;
69256;SDS011;56376;53.356;-1.748;2023-05-10T06:30:08;8.07;;;4.47;;
69256;SDS011;56376;53.356;-1.748;2023-05-10T06:32:34;6.43;;;4.03;;
69256;SDS011;56376;53.356;-1.748;2023-05-10T06:35:00;6.07;;;4.00;;
69256;SDS011;56376;53.356;-1.748;2023-05-10T06:37:25;6.50;;;3.78;;
69256;SDS011;56376;53.356;-1.748;2023-05-10T06:39:50;6.40;;;3.97;;
69256;SDS011;56376;53.356;-1.748;2023-05-10T06:42:16;4.97;;;3.30;;
69256;SDS011;56376;53.356;-1.748;2023-05-10T06:44:41;6.13;;;3.83;;
69256;SDS011;56376;53.356;-1.748;2023-05-10T06:47:07;7.55;;;3.70;;
69256;SDS011;56376;53.356;-1.748;2023-05-10T06:49:32;6.07;;;3.55;;
69256;SDS011;56376;53.356;-1.748;2023-05-10T06:51:57;6.75;;;3.63;;
69256;SDS011;56376;53.356;-1.748;2023-05-10T06:54:23;6.03;;;3.20;;
69256;SDS011;56376;53.356;-1.748;2023-05-10T06:56:48;6.90;;;3.13;;
69256;SDS011;56376;53.356;-1.748;2023-05-10T06:59:14;7.75;;;3.70;;
69256;SDS011;56376;53.356;-1.748;2023-05-10T07:01:41;8.65;;;3.97;;
69256;SDS011;56376;53.356;-1.748;2023-05-10T07:04:11;6.43;;;3.47;;
69256;SDS011;56376;53.356;-1.748;2023-05-10T07:06:37;5.70;;;3.20;;
69256;SDS011;56376;53.356;-1.748;2023-05-10T07:09:03;7.40;;;3.58;;
69256;SDS011;56376;53.356;-1.748;2023-05-10T07:11:28;4.25;;;2.67;;
69256;SDS011;56376;53.356;-1.748;2023-05-10T07:13:53;7.13;;;3.22;;
69256;SDS011;56376;53.356;-1.748;2023-05-10T07:16:19;6.15;;;3.35;;
69256;SDS011;56376;53.356;-1.748;2023-05-10T07:18:44;4.60;;;2.70;;
69256;SDS011;56376;53.356;-1.748;2023-05-10T07:21:10;4.20;;;3.10;;
69256;SDS011;56376;53.356;-1.748;2023-05-10T07:23:35;5.00;;;3.03;;
69256;SDS011;56376;53.356;-1.748;2023-05-10T07:26:00;3.92;;;2.90;;
69256;SDS011;56376;53.356;-1.748;2023-05-10T07:28:27;7.22;;;4.28;;
69256;SDS011;56376;53.356;-1.748;2023-05-10T07:30:52;8.63;;;5.22;;
69256;SDS011;56376;53.356;-1.748;2023-05-10T07:33:18;6.05;;;5.15;;
69256;SDS011;56376;53.356;-1.748;2023-05-10T07:35:43;7.00;;;4.97;;
69256;SDS011;56376;53.356;-1.748;2023-05-10T07:38:09;4.97;;;4.43;;
69256;SDS011;56376;53.356;-1.748;2023-05-10T07:40:36;6.25;;;4.13;;
69256;SDS011;56376;53.356;-1.748;2023-05-10T07:43:01;5.95;;;3.72;;
69256;SDS011;56376;53.356;-1.748;2023-05-10T07:45:27;7.00;;;4.05;;
69256;SDS011;56376;53.356;-1.748;2023-05-10T07:47:53;7.65;;;3.95;;
69256;SDS011;56376;53.356;-1.748;2023-05-10T07:50:18;7.15;;;3.78;;
69256;SDS011;56376;53.356;-1.748;2023-05-10T07:52:44;5.88;;;3.15;;
69256;SDS011;56376;53.356;-1.748;2023-05-10T07:55:09;5.60;;;3.10;;
69256;SDS011;56376;53.356;-1.748;2023-05-10T07:57:35;4.13;;;2.75;;
69256;SDS011;56376;53.356;-1.748;2023-05-10T08:00:00;3.70;;;2.50;;
69256;SDS011;56376;53.356;-1.748;2023-05-10T08:02:26;4.18;;;2.90;;
69256;SDS011;56376;53.356;-1.748;2023-05-10T08:04:51;4.35;;;2.50;;
69256;SDS011;56376;53.356;-1.748;2023-05-10T08:07:17;5.70;;;3.00;;
69256;SDS011;56376;53.356;-1.748;2023-05-10T08:09:43;2.75;;;2.28;;
69256;SDS011;56376;53.356;-1.748;2023-05-10T08:12:08;4.00;;;3.17;;
69256;SDS011;56376;53.356;-1.748;2023-05-10T08:14:34;3.38;;;2.28;;
69256;SDS011;56376;53.356;-1.748;2023-05-10T08:17:01;3.25;;;2.15;;
69256;SDS011;56376;53.356;-1.748;2023-05-10T08:19:27;3.67;;;2.60;;
69256;SDS011;56376;53.356;-1.748;2023-05-10T08:21:52;4.63;;;2.35;;
69256;SDS011;56376;53.356;-1.748;2023-05-10T08:24:20;4.22;;;2.65;;
69256;SDS011;56376;53.356;-1.748;2023-05-10T08:26:45;5.72;;;2.70;;
69256;SDS011;56376;53.356;-1.748;2023-05-10T08:29:11;3.08;;;2.42;;
69256;SDS011;56376;53.356;-1.748;2023-05-10T08:31:36;4.57;;;2.60;;
69256;SDS011;56376;53.356;-1.748;2023-05-10T08:34:02;11.50;;;3.47;;
69256;SDS011;56376;53.356;-1.748;2023-05-10T08:36:27;5.13;;;2.83;;
69256;SDS011;56376;53.356;-1.748;2023-05-10T08:38:53;4.97;;;3.28;;
69256;SDS011;56376;53.356;-1.748;2023-05-10T08:41:19;3.67;;;2.20;;
69256;SDS011;56376;53.356;-1.748;2023-05-10T08:43:46;4.60;;;2.83;;
69256;SDS011;56376;53.356;-1.748;2023-05-10T08:46:15;2.88;;;2.10;;
69256;SDS011;56376;53.356;-1.748;2023-05-10T08:48:42;4.13;;;2.08;;
69256;SDS011;56376;53.356;-1.748;2023-05-10T08:51:09;3.78;;;1.75;;
69256;SDS011;56376;53.356;-1.748;2023-05-10T08:53:43;2.88;;;1.83;;
69256;SDS011;56376;53.356;-1.748;2023-05-10T08:56:09;4.53;;;1.98;;
69256;SDS011;56376;53.356;-1.748;2023-05-10T08:58:35;2.35;;;1.60;;
69256;SDS011;56376;53.356;-1.748;2023-05-10T09:01:01;4.75;;;1.80;;
69256;SDS011;56376;53.356;-1.748;2023-05-10T09:03:27;4.45;;;2.08;;
69256;SDS011;56376;53.356;-1.748;2023-05-10T09:05:53;3.22;;;2.60;;
69256;SDS011;56376;53.356;-1.748;2023-05-10T09:08:20;2.60;;;2.40;;
69256;SDS011;56376;53.356;-1.748;2023-05-10T09:10:50;3.25;;;2.53;;
69256;SDS011;56376;53.356;-1.748;2023-05-10T09:13:16;3.70;;;3.10;;
69256;SDS011;56376;53.356;-1.748;2023-05-10T09:15:43;4.68;;;3.00;;
69256;SDS011;56376;53.356;-1.748;2023-05-10T09:18:09;4.88;;;3.10;;
69256;SDS011;56376;53.356;-1.748;2023-05-10T09:20:35;3.35;;;2.60;;
69256;SDS011;56376;53.356;-1.748;2023-05-10T09:23:01;2.83;;;2.42;;
69256;SDS011;56376;53.356;-1.748;2023-05-10T09:25:26;3.00;;;2.70;;
69256;SDS011;56376;53.356;-1.748;2023-05-10T09:27:52;2.63;;;2.30;;
69256;SDS011;56376;53.356;-1.748;2023-05-10T09:30:25;5.30;;;2.60;;
69256;SDS011;56376;53.356;-1.748;2023-05-10T09:32:54;3.20;;;2.20;;
69256;SDS011;56376;53.356;-1.748;2023-05-10T09:35:21;3.85;;;2.40;;
69256;SDS011;56376;53.356;-1.748;2023-05-10T09:37:49;3.78;;;2.20;;
69256;SDS011;56376;53.356;-1.748;2023-05-10T09:40:17;2.53;;;1.85;;
69256;SDS011;56376;53.356;-1.748;2023-05-10T09:42:54;3.35;;;2.20;;
69256;SDS011;56376;53.356;-1.748;2023-05-10T09:45:22;3.75;;;2.40;;
69256;SDS011;56376;53.356;-1.748;2023-05-10T09:47:48;2.78;;;2.17;;
69256;SDS011;56376;53.356;-1.748;2023-05-10T09:50:14;4.90;;;2.78;;
69256;SDS011;56376;53.356;-1.748;2023-05-10T09:52:50;4.07;;;2.47;;
69256;SDS011;56376;53.356;-1.748;2023-05-10T09:55:23;2.60;;;2.40;;
69256;SDS011;56376;53.356;-1.748;2023-05-10T09:58:03;4.28;;;3.20;;
69256;SDS011;56376;53.356;-1.748;2023-05-10T10:00:34;3.10;;;2.80;;
69256;SDS011;56376;53.356;-1.748;2023-05-10T10:03:01;3.65;;;2.55;;
69256;SDS011;56376;53.356;-1.748;2023-05-10T10:05:30;2.50;;;2.30;;
69256;SDS011;56376;53.356;-1.748;2023-05-10T10:08:05;5.93;;;2.95;;
69256;SDS011;56376;53.356;-1.748;2023-05-10T10:10:32;5.38;;;2.90;;
69256;SDS011;56376;53.356;-1.748;2023-05-10T10:12:58;2.92;;;2.30;;
69256;SDS011;56376;53.356;-1.748;2023-05-10T10:15:24;2.75;;;2.55;;
69256;SDS011;56376;53.356;-1.748;2023-05-10T10:17:51;2.30;;;2.10;;
69256;SDS011;56376;53.356;-1.748;2023-05-10T10:20:17;2.55;;;2.33;;
69256;SDS011;56376;53.356;-1.748;2023-05-10T10:22:44;3.03;;;2.40;;
69256;SDS011;56376;53.356;-1.748;2023-05-10T10:25:11;3.30;;;2.30;;
69256;SDS011;56376;53.356;-1.748;2023-05-10T10:27:49;2.65;;;2.13;;
69256;SDS011;56376;53.356;-1.748;2023-05-10T10:30:29;1.70;;;1.60;;
69256;SDS011;56376;53.356;-1.748;2023-05-10T10:35:53;3.03;;;2.63;;
69256;SDS011;56376;53.356;-1.748;2023-05-10T10:38:19;2.50;;;2.00;;
69256;SDS011;56376;53.356;-1.748;2023-05-10T10:40:45;2.03;;;1.83;;
69256;SDS011;56376;53.356;-1.748;2023-05-10T10:43:44;2.78;;;2.13;;
69256;SDS011;56376;53.356;-1.748;2023-05-10T10:48:40;2.38;;;2.17;;
69256;SDS011;56376;53.356;-1.748;2023-05-10T10:51:07;2.25;;;2.05;;
69256;SDS011;56376;53.356;-1.748;2023-05-10T10:53:32;2.47;;;2.28;;
69256;SDS011;56376;53.356;-1.748;2023-05-10T10:56:17;2.55;;;2.03;;
69256;SDS011;56376;53.356;-1.748;2023-05-10T10:58:49;3.00;;;2.53;;
69256;SDS011;56376;53.356;-1.748;2023-05-10T11:01:18;3.40;;;2.50;;
69256;SDS011;56376;53.356;-1.748;2023-05-10T11:06:34;2.13;;;1.92;;
69256;SDS011;56376;53.356;-1.748;2023-05-10T11:09:10;2.55;;;2.35;;
69256;SDS011;56376;53.356;-1.748;2023-05-10T11:11:48;2.63;;;2.35;;
69256;SDS011;56376;53.356;-1.748;2023-05-10T11:14:18;1.73;;;1.63;;
69256;SDS011;56376;53.356;-1.748;2023-05-10T11:16:45;1.92;;;1.70;;
69256;SDS011;56376;53.356;-1.748;2023-05-10T11:19:11;2.72;;;1.60;;
69256;SDS011;56376;53.356;-1.748;2023-05-10T11:21:48;2.42;;;1.50;;
69256;SDS011;56376;53.356;-1.748;2023-05-10T11:24:28;2.72;;;1.60;;
69256;SDS011;56376;53.356;-1.748;2023-05-10T11:26:54;1.27;;;1.17;;
69256;SDS011;56376;53.356;-1.748;2023-05-10T11:29:20;1.30;;;1.00;;
69256;SDS011;56376;53.356;-1.748;2023-05-10T11:31:46;2.00;;;1.42;;
69256;SDS011;56376;53.356;-1.748;2023-05-10T11:34:22;1.83;;;1.42;;
69256;SDS011;56376;53.356;-1.748;2023-05-10T11:37:00;1.30;;;1.20;;
69256;SDS011;56376;53.356;-1.748;2023-05-10T11:39:26;1.40;;;1.30;;
69256;SDS011;56376;53.356;-1.748;2023-05-10T11:41:53;2.30;;;1.25;;
69256;SDS011;56376;53.356;-1.748;2023-05-10T11:44:18;1.50;;;1.20;;
69256;SDS011;56376;53.356;-1.748;2023-05-10T11:46:43;1.02;;;0.90;;
69256;SDS011;56376;53.356;-1.748;2023-05-10T11:49:09;0.75;;;0.73;;
69256;SDS011;56376;53.356;-1.748;2023-05-10T11:51:35;1.15;;;0.60;;
69256;SDS011;56376;53.356;-1.748;2023-05-10T11:54:01;1.35;;;0.43;;
69256;SDS011;56376;53.356;-1.748;2023-05-10T11:56:32;0.50;;;0.50;;
69256;SDS011;56376;53.356;-1.748;2023-05-10T11:58:57;0.40;;;0.40;;
69256;SDS011;56376;53.356;-1.748;2023-05-10T12:01:24;0.45;;;0.43;;
69256;SDS011;56376;53.356;-1.748;2023-05-10T12:03:51;0.50;;;0.50;;
69256;SDS011;56376;53.356;-1.748;2023-05-10T12:06:18;0.57;;;0.50;;
69256;SDS011;56376;53.356;-1.748;2023-05-10T12:08:46;0.57;;;0.57;;
69256;SDS011;56376;53.356;-1.748;2023-05-10T12:11:12;0.80;;;0.80;;
69256;SDS011;56376;53.356;-1.748;2023-05-10T12:13:40;0.75;;;0.75;;
69256;SDS011;56376;53.356;-1.748;2023-05-10T12:16:14;2.00;;;1.13;;
69256;SDS011;56376;53.356;-1.748;2023-05-10T12:18:45;1.70;;;1.30;;
69256;SDS011;56376;53.356;-1.748;2023-05-10T12:21:13;1.38;;;1.20;;
69256;SDS011;56376;53.356;-1.748;2023-05-10T12:23:40;2.20;;;1.20;;
69256;SDS011;56376;53.356;-1.748;2023-05-10T12:26:06;1.90;;;1.30;;
69256;SDS011;56376;53.356;-1.748;2023-05-10T12:28:34;1.50;;;1.30;;
69256;SDS011;56376;53.356;-1.748;2023-05-10T12:31:00;1.83;;;1.23;;
69256;SDS011;56376;53.356;-1.748;2023-05-10T12:33:26;1.60;;;1.50;;
69256;SDS011;56376;53.356;-1.748;2023-05-10T12:35:53;3.17;;;1.73;;
69256;SDS011;56376;53.356;-1.748;2023-05-10T12:38:32;2.75;;;1.40;;
69256;SDS011;56376;53.356;-1.748;2023-05-10T12:41:09;3.97;;;2.08;;
69256;SDS011;56376;53.356;-1.748;2023-05-10T12:43:36;3.55;;;1.50;;
69256;SDS011;56376;53.356;-1.748;2023-05-10T12:46:07;1.88;;;1.20;;
69256;SDS011;56376;53.356;-1.748;2023-05-10T12:48:43;0.80;;;0.73;;
69256;SDS011;56376;53.356;-1.748;2023-05-10T12:51:09;0.98;;;0.85;;
69256;SDS011;56376;53.356;-1.748;2023-05-10T12:53:37;0.77;;;0.77;;
69256;SDS011;56376;53.356;-1.748;2023-05-10T12:56:02;2.13;;;0.70;;
69256;SDS011;56376;53.356;-1.748;2023-05-10T12:58:28;1.30;;;1.05;;
69256;SDS011;56376;53.356;-1.748;2023-05-10T13:00:53;0.90;;;0.80;;
69256;SDS011;56376;53.356;-1.748;2023-05-10T13:03:21;1.42;;;0.98;;
69256;SDS011;56376;53.356;-1.748;2023-05-10T13:05:46;1.50;;;1.00;;
69256;SDS011;56376;53.356;-1.748;2023-05-10T13:08:12;1.08;;;0.98;;
69256;SDS011;56376;53.356;-1.748;2023-05-10T13:10:37;1.00;;;0.80;;
69256;SDS011;56376;53.356;-1.748;2023-05-10T13:13:02;0.57;;;0.52;;
69256;SDS011;56376;53.356;-1.748;2023-05-10T13:15:31;1.60;;;0.75;;
69256;SDS011;56376;53.356;-1.748;2023-05-10T13:17:56;0.55;;;0.50;;
69256;SDS011;56376;53.356;-1.748;2023-05-10T13:20:22;0.55;;;0.47;;
69256;SDS011;56376;53.356;-1.748;2023-05-10T13:22:47;0.50;;;0.50;;
69256;SDS011;56376;53.356;-1.748;2023-05-10T13:25:12;0.50;;;0.50;;
69256;SDS011;56376;53.356;-1.748;2023-05-10T13:27:39;0.50;;;0.50;;
69256;SDS011;56376;53.356;-1.748;2023-05-10T13:30:06;1.58;;;0.60;;
69256;SDS011;56376;53.356;-1.748;2023-05-10T13:32:32;0.70;;;0.57;;
69256;SDS011;56376;53.356;-1.748;2023-05-10T13:34:58;0.40;;;0.40;;
69256;SDS011;56376;53.356;-1.748;2023-05-10T13:37:24;0.73;;;0.70;;
69256;SDS011;56376;53.356;-1.748;2023-05-10T13:39:49;1.40;;;0.60;;
69256;SDS011;56376;53.356;-1.748;2023-05-10T13:42:15;0.75;;;0.57;;
69256;SDS011;56376;53.356;-1.748;2023-05-10T13:44:40;0.70;;;0.70;;
69256;SDS011;56376;53.356;-1.748;2023-05-10T13:47:06;0.57;;;0.57;;
69256;SDS011;56376;53.356;-1.748;2023-05-10T13:49:31;0.70;;;0.70;;
69256;SDS011;56376;53.356;-1.748;2023-05-10T13:51:57;0.70;;;0.70;;
69256;SDS011;56376;53.356;-1.748;2023-05-10T13:54:23;0.77;;;0.68;;
69256;SDS011;56376;53.356;-1.748;2023-05-10T13:56:49;1.02;;;0.80;;
69256;SDS011;56376;53.356;-1.748;2023-05-10T13:59:14;0.75;;;0.60;;
69256;SDS011;56376;53.356;-1.748;2023-05-10T14:01:40;1.25;;;0.82;;
69256;SDS011;56376;53.356;-1.748;2023-05-10T14:04:06;0.70;;;0.70;;
69256;SDS011;56376;53.356;-1.748;2023-05-10T14:06:35;0.52;;;0.47;;
69256;SDS011;56376;53.356;-1.748;2023-05-10T14:09:01;0.80;;;0.80;;
69256;SDS011;56376;53.356;-1.748;2023-05-10T14:11:27;0.60;;;0.60;;
69256;SDS011;56376;53.356;-1.748;2023-05-10T14:13:52;0.60;;;0.55;;
69256;SDS011;56376;53.356;-1.748;2023-05-10T14:16:18;0.50;;;0.50;;
69256;SDS011;56376;53.356;-1.748;2023-05-10T14:18:44;0.60;;;0.60;;
69256;SDS011;56376;53.356;-1.748;2023-05-10T14:21:09;1.17;;;0.50;;
69256;SDS011;56376;53.356;-1.748;2023-05-10T14:23:34;0.50;;;0.50;;
69256;SDS011;56376;53.356;-1.748;2023-05-10T14:26:00;0.40;;;0.40;;
69256;SDS011;56376;53.356;-1.748;2023-05-10T14:28:25;0.75;;;0.50;;
69256;SDS011;56376;53.356;-1.748;2023-05-10T14:30:51;0.63;;;0.50;;
69256;SDS011;56376;53.356;-1.748;2023-05-10T14:33:16;1.70;;;0.80;;
69256;SDS011;56376;53.356;-1.748;2023-05-10T14:35:42;1.23;;;0.73;;
69256;SDS011;56376;53.356;-1.748;2023-05-10T14:38:07;0.73;;;0.63;;
69256;SDS011;56376;53.356;-1.748;2023-05-10T14:40:33;1.42;;;0.75;;
69256;SDS011;56376;53.356;-1.748;2023-05-10T14:42:58;0.82;;;0.52;;
69256;SDS011;56376;53.356;-1.748;2023-05-10T14:45:23;0.57;;;0.40;;
69256;SDS011;56376;53.356;-1.748;2023-05-10T14:47:49;0.93;;;0.80;;
69256;SDS011;56376;53.356;-1.748;2023-05-10T14:50:15;0.75;;;0.75;;
69256;SDS011;56376;53.356;-1.748;2023-05-10T14:52:41;0.60;;;0.60;;
69256;SDS011;56376;53.356;-1.748;2023-05-10T14:55:07;1.15;;;0.93;;
69256;SDS011;56376;53.356;-1.748;2023-05-10T14:57:33;0.40;;;0.40;;
69256;SDS011;56376;53.356;-1.748;2023-05-10T14:59:58;0.73;;;0.60;;
69256;SDS011;56376;53.356;-1.748;2023-05-10T15:02:24;1.17;;;0.60;;
69256;SDS011;56376;53.356;-1.748;2023-05-10T15:04:50;0.60;;;0.60;;